Time;durP1;ratioP1;P1;durP2;ratioP2;P2;SDS_P1;SDS_P2;PMS_P1;PMS_P2;Temp;Humidity;BMP_temperature;BMP_pressure;BME280_temperature;BME280_humidity;BME280_pressure;Samples;Min_cycle;Max_cycle;Signal;HPM_P1;HPM_P2
2022/11/27 00:01:17;;;;;;;13.90;11.30;;;9.70;99.90;;;;;;5012400;28;20165;-58
2022/11/27 00:03:42;;;;;;;13.57;11.27;;;9.80;99.90;;;;;;5012239;28;20168;-58
2022/11/27 00:06:13;;;;;;;14.83;11.53;;;9.70;99.90;;;;;;5011600;28;20317;-54
2022/11/27 00:08:38;;;;;;;14.67;12.37;;;9.60;99.90;;;;;;5012160;28;20204;-57
2022/11/27 00:11:09;;;;;;;13.73;11.93;;;9.60;99.90;;;;;;5012229;28;20502;-56
2022/11/27 00:13:35;;;;;;;15.93;12.97;;;9.50;99.90;;;;;;5012146;28;20613;-56
2022/11/27 00:16:00;;;;;;;15.07;12.30;;;9.60;99.90;;;;;;5012016;28;20300;-57
2022/11/27 00:18:26;;;;;;;15.43;12.13;;;9.80;99.90;;;;;;5012019;28;20275;-59
2022/11/27 00:20:52;;;;;;;16.17;13.00;;;9.50;99.90;;;;;;5011562;28;20203;-57
2022/11/27 00:23:17;;;;;;;13.30;11.40;;;9.60;99.90;;;;;;5012067;28;20176;-56
2022/11/27 00:25:50;;;;;;;14.00;11.40;;;9.60;99.90;;;;;;5011985;28;20259;-57
2022/11/27 00:28:16;;;;;;;15.73;12.20;;;9.80;99.90;;;;;;5066932;23;20952;-54
2022/11/27 00:30:42;;;;;;;15.20;12.90;;;9.60;99.90;;;;;;5051014;28;20171;-54
2022/11/27 00:33:07;;;;;;;13.90;11.70;;;9.60;99.90;;;;;;5051299;28;20163;-55
2022/11/27 00:35:33;;;;;;;14.27;11.67;;;9.60;99.90;;;;;;5050757;28;20263;-55
2022/11/27 00:37:58;;;;;;;14.80;12.10;;;9.50;99.90;;;;;;5050964;28;20187;-54
2022/11/27 00:40:24;;;;;;;17.43;12.50;;;9.60;99.90;;;;;;5051318;28;20469;-55
2022/11/27 00:42:49;;;;;;;17.10;12.00;;;9.60;99.90;;;;;;5051124;28;20250;-54
2022/11/27 00:45:15;;;;;;;14.97;11.70;;;9.70;99.90;;;;;;5050952;28;20311;-55
2022/11/27 00:47:41;;;;;;;15.27;11.73;;;9.60;99.90;;;;;;5050854;28;20193;-57
2022/11/27 00:50:07;;;;;;;17.03;12.33;;;9.60;99.90;;;;;;5051026;28;20170;-56
2022/11/27 00:52:32;;;;;;;17.27;13.10;;;9.60;99.90;;;;;;5050539;28;20171;-57
2022/11/27 00:54:58;;;;;;;15.90;11.63;;;9.60;99.90;;;;;;5050838;28;20201;-53
2022/11/27 00:57:24;;;;;;;15.13;12.47;;;9.50;99.90;;;;;;5051030;28;20194;-56
2022/11/27 00:59:50;;;;;;;16.57;13.37;;;9.50;99.90;;;;;;5050929;28;20528;-52
2022/11/27 01:02:16;;;;;;;14.83;11.83;;;9.40;99.90;;;;;;5052148;28;20167;-55
2022/11/27 01:04:47;;;;;;;15.50;12.37;;;9.50;99.90;;;;;;5054565;28;20245;-55
2022/11/27 01:07:13;;;;;;;17.63;11.70;;;9.50;99.90;;;;;;5053967;28;20574;-54
2022/11/27 01:09:39;;;;;;;15.50;11.57;;;9.50;99.90;;;;;;5053275;28;20175;-54
2022/11/27 01:12:05;;;;;;;15.10;11.90;;;9.50;99.90;;;;;;5054962;28;20625;-57
2022/11/27 01:14:30;;;;;;;17.77;13.77;;;9.50;99.90;;;;;;5054283;28;20190;-55
2022/11/27 01:16:56;;;;;;;17.23;13.47;;;9.50;99.90;;;;;;5054675;28;20174;-55
2022/11/27 01:19:22;;;;;;;16.67;12.20;;;9.50;99.90;;;;;;5054557;28;20179;-56
2022/11/27 01:21:47;;;;;;;16.47;12.73;;;9.50;99.90;;;;;;5053751;28;20178;-54
2022/11/27 01:24:14;;;;;;;14.70;12.07;;;9.40;99.90;;;;;;5054439;28;20163;-57
2022/11/27 01:26:41;;;;;;;14.07;12.00;;;10.20;99.90;;;;;;5054618;28;20261;-56
2022/11/27 01:29:07;;;;;;;15.80;11.90;;;9.40;99.90;;;;;;5054566;28;20203;-58
2022/11/27 01:31:33;;;;;;;14.20;11.13;;;9.40;99.90;;;;;;5054473;28;20163;-55
2022/11/27 01:34:02;;;;;;;16.83;12.17;;;9.50;99.90;;;;;;5054198;28;20229;-56
2022/11/27 01:36:28;;;;;;;14.50;12.07;;;9.50;99.90;;;;;;5053346;28;20213;-55
2022/11/27 01:38:54;;;;;;;14.13;11.67;;;9.50;99.90;;;;;;5054538;28;20183;-56
2022/11/27 01:41:24;;;;;;;13.10;10.70;;;9.50;99.90;;;;;;5054351;28;20279;-58
2022/11/27 01:43:53;;;;;;;16.53;12.17;;;9.50;99.90;;;;;;5054178;28;20159;-54
2022/11/27 01:46:33;;;;;;;14.00;10.70;;;9.50;99.90;;;;;;5054196;28;20169;-56
2022/11/27 01:49:14;;;;;;;13.90;11.17;;;9.50;99.90;;;;;;5054300;28;20194;-55
2022/11/27 01:51:51;;;;;;;14.83;11.67;;;9.50;99.90;;;;;;5054134;28;20163;-56
2022/11/27 01:54:19;;;;;;;15.23;12.27;;;9.40;99.90;;;;;;5054136;28;20167;-58
2022/11/27 01:56:49;;;;;;;13.70;11.53;;;9.60;99.90;;;;;;5054170;28;20163;-54
2022/11/27 01:59:16;;;;;;;13.97;11.73;;;9.40;99.90;;;;;;5054175;28;20209;-57
2022/11/27 02:01:41;;;;;;;14.20;10.93;;;9.40;99.90;;;;;;5053975;28;20250;-57
2022/11/27 02:04:07;;;;;;;17.13;11.93;;;9.40;99.90;;;;;;5053753;28;20198;-56
2022/11/27 02:06:32;;;;;;;12.97;11.50;;;9.30;99.90;;;;;;5053038;28;20178;-57
2022/11/27 02:08:58;;;;;;;13.93;11.73;;;9.40;99.90;;;;;;5053574;28;20190;-58
2022/11/27 02:12:04;;;;;;;16.73;12.53;;;9.40;99.90;;;;;;5053964;28;20171;-56
2022/11/27 02:14:43;;;;;;;13.93;11.03;;;9.40;99.90;;;;;;5053097;28;20887;-54
2022/11/27 02:17:27;;;;;;;13.80;11.10;;;9.40;99.90;;;;;;5053693;28;20220;-56
2022/11/27 02:20:03;;;;;;;13.87;11.10;;;9.30;99.90;;;;;;5053840;28;20194;-58
2022/11/27 02:23:02;;;;;;;14.03;11.00;;;9.20;99.90;;;;;;5052932;28;20171;-55
2022/11/27 02:25:30;;;;;;;14.83;11.40;;;9.30;99.90;;;;;;5052431;28;20179;-57
2022/11/27 02:28:20;;;;;;;15.07;12.20;;;9.20;99.90;;;;;;5053244;28;20230;-52
2022/11/27 02:30:50;;;;;;;14.53;11.47;;;9.30;99.90;;;;;;5053658;28;20167;-57
2022/11/27 02:33:20;;;;;;;14.03;11.23;;;9.30;99.90;;;;;;5053424;28;20531;-52
2022/11/27 02:35:58;;;;;;;14.83;11.43;;;9.30;99.90;;;;;;5052766;28;20191;-55
2022/11/27 02:38:31;;;;;;;14.87;11.23;;;9.30;99.90;;;;;;5052766;28;20183;-51
2022/11/27 02:41:03;;;;;;;15.63;11.90;;;9.40;99.90;;;;;;5053344;28;20287;-53
2022/11/27 02:43:35;;;;;;;16.87;12.53;;;9.30;99.90;;;;;;5053236;28;20233;-54
2022/11/27 02:46:03;;;;;;;14.30;12.00;;;9.30;99.90;;;;;;5053174;28;20628;-57
2022/11/27 02:48:49;;;;;;;16.23;11.60;;;9.30;99.90;;;;;;5053217;28;20195;-57
2022/11/27 02:51:20;;;;;;;14.13;11.33;;;9.20;99.90;;;;;;5053047;28;20203;-56
2022/11/27 02:53:50;;;;;;;15.30;11.57;;;9.30;99.90;;;;;;5052905;28;20202;-56
2022/11/27 02:56:19;;;;;;;15.57;11.80;;;9.30;99.90;;;;;;5052849;28;20203;-53
2022/11/27 02:58:46;;;;;;;15.07;12.20;;;9.20;99.90;;;;;;5052861;28;20179;-53
2022/11/27 03:01:14;;;;;;;13.97;10.80;;;9.00;99.90;;;;;;5052825;28;20270;-54
2022/11/27 03:03:46;;;;;;;12.73;10.30;;;9.00;99.90;;;;;;5052598;28;20168;-52
2022/11/27 03:06:18;;;;;;;14.93;11.20;;;8.90;99.90;;;;;;5052130;28;20198;-52
2022/11/27 03:08:59;;;;;;;13.20;10.63;;;8.90;99.90;;;;;;5052585;28;20321;-57
2022/11/27 03:11:29;;;;;;;15.33;11.27;;;8.90;99.90;;;;;;5052747;28;20522;-52
2022/11/27 03:13:58;;;;;;;12.47;10.37;;;8.80;99.90;;;;;;5052546;28;20187;-54
2022/11/27 03:16:53;;;;;;;12.60;10.03;;;9.00;99.90;;;;;;5052366;28;20210;-56
2022/11/27 03:19:21;;;;;;;13.53;10.30;;;8.90;99.90;;;;;;5052633;28;20183;-55
2022/11/27 03:21:50;;;;;;;13.33;10.57;;;8.90;99.90;;;;;;5051761;28;20167;-54
2022/11/27 03:24:16;;;;;;;12.83;10.80;;;8.90;99.90;;;;;;5051752;28;20194;-52
2022/11/27 03:26:42;;;;;;;13.77;10.50;;;8.80;99.90;;;;;;5051859;28;20167;-53
2022/11/27 03:29:22;;;;;;;14.57;10.40;;;8.90;99.90;;;;;;5052341;28;20532;-54
2022/11/27 03:31:48;;;;;;;14.13;10.13;;;8.90;99.90;;;;;;5052254;28;20194;-55
2022/11/27 03:34:15;;;;;;;14.70;11.17;;;8.90;99.90;;;;;;5051917;28;20216;-54
2022/11/27 03:36:41;;;;;;;13.90;10.33;;;9.00;99.90;;;;;;5052071;28;20201;-54
2022/11/27 03:39:07;;;;;;;12.67;10.13;;;9.00;99.90;;;;;;5051794;28;20187;-54
2022/11/27 03:42:04;;;;;;;11.60;9.40;;;8.90;99.90;;;;;;5052243;28;20167;-52
2022/11/27 03:44:45;;;;;;;13.87;10.27;;;8.90;99.90;;;;;;5051704;28;20179;-56
2022/11/27 03:47:19;;;;;;;12.37;10.70;;;9.00;99.90;;;;;;5052103;28;20182;-55
2022/11/27 03:50:11;;;;;;;12.83;10.03;;;9.00;99.90;;;;;;5051912;28;20174;-55
2022/11/27 03:52:56;;;;;;;12.70;9.83;;;8.90;99.90;;;;;;5051216;28;20187;-53
2022/11/27 03:55:36;;;;;;;13.27;9.80;;;9.10;99.90;;;;;;5051587;28;20198;-55
2022/11/27 03:58:10;;;;;;;13.87;11.17;;;9.10;99.90;;;;;;5051824;28;20521;-53
2022/11/27 04:00:41;;;;;;;15.63;11.43;;;9.00;99.90;;;;;;5051800;28;20261;-57
2022/11/27 04:03:12;;;;;;;14.50;11.07;;;9.00;99.90;;;;;;5050544;28;20201;-55
2022/11/27 04:05:38;;;;;;;14.03;11.03;;;8.90;99.90;;;;;;5051064;28;20260;-56
2022/11/27 04:08:04;;;;;;;13.67;10.77;;;9.10;99.90;;;;;;5051631;28;20655;-53
2022/11/27 04:10:29;;;;;;;12.40;9.67;;;9.00;99.90;;;;;;5050868;28;20742;-58
2022/11/27 04:12:55;;;;;;;12.37;10.03;;;9.00;99.90;;;;;;5051753;28;20236;-55
2022/11/27 04:15:20;;;;;;;13.60;9.73;;;9.00;99.90;;;;;;5051138;28;20198;-57
2022/11/27 04:17:46;;;;;;;11.70;9.50;;;9.00;99.90;;;;;;5051492;28;20521;-54
2022/11/27 04:20:13;;;;;;;12.60;9.23;;;9.10;99.90;;;;;;5051143;28;20167;-55
2022/11/27 04:22:39;;;;;;;12.33;9.47;;;8.90;99.90;;;;;;5050766;28;20174;-53
2022/11/27 04:25:05;;;;;;;11.20;9.47;;;9.00;99.90;;;;;;5051030;28;20166;-54
2022/11/27 04:27:30;;;;;;;11.90;9.00;;;9.00;99.90;;;;;;5051421;28;20171;-54
2022/11/27 04:29:56;;;;;;;11.93;9.33;;;9.10;99.90;;;;;;5051295;28;20528;-54
2022/11/27 04:32:22;;;;;;;10.77;9.43;;;9.10;99.90;;;;;;5051331;28;20168;-52
2022/11/27 04:34:47;;;;;;;11.57;9.23;;;9.00;99.90;;;;;;5050994;28;20194;-53
2022/11/27 04:37:13;;;;;;;11.17;8.57;;;9.20;99.90;;;;;;5050672;28;20190;-56
2022/11/27 04:39:38;;;;;;;13.73;9.27;;;9.20;99.90;;;;;;5051320;28;20226;-56
2022/11/27 04:42:04;;;;;;;12.17;9.23;;;9.10;99.90;;;;;;5051191;28;20163;-54
2022/11/27 04:44:29;;;;;;;11.40;9.67;;;9.10;99.90;;;;;;5051037;28;20591;-54
2022/11/27 04:46:55;;;;;;;14.20;10.43;;;9.10;99.90;;;;;;5050921;28;20644;-54
2022/11/27 04:49:21;;;;;;;11.80;9.70;;;9.00;99.90;;;;;;5048923;28;20238;-55
2022/11/27 04:51:46;;;;;;;11.70;9.43;;;9.10;99.90;;;;;;5048468;28;20265;-56
2022/11/27 04:54:12;;;;;;;12.97;10.03;;;9.00;99.90;;;;;;5049202;28;20669;-54
2022/11/27 04:56:37;;;;;;;12.53;9.83;;;9.00;99.90;;;;;;5050910;28;20191;-52
2022/11/27 04:59:04;;;;;;;13.47;9.70;;;8.90;99.90;;;;;;5049867;28;20219;-55
2022/11/27 05:01:29;;;;;;;13.80;9.80;;;9.00;99.90;;;;;;5051010;28;20163;-53
2022/11/27 05:03:55;;;;;;;12.87;9.17;;;9.10;99.90;;;;;;5050666;28;20167;-55
2022/11/27 05:06:21;;;;;;;12.33;9.50;;;;;;;;;;5050311;28;20171;-54
2022/11/27 05:08:47;;;;;;;12.80;10.17;;;9.00;99.90;;;;;;5050352;28;20271;-53
2022/11/27 05:11:15;;;;;;;13.20;9.43;;;9.10;99.90;;;;;;5051230;28;20779;-56
2022/11/27 05:13:41;;;;;;;14.63;11.10;;;8.90;99.90;;;;;;5050421;28;20163;-52
2022/11/27 05:16:07;;;;;;;11.73;9.20;;;8.60;99.90;;;;;;5051021;28;20195;-55
2022/11/27 05:18:32;;;;;;;13.10;10.70;;;9.10;99.90;;;;;;5050542;28;20201;-58
2022/11/27 05:21:06;;;;;;;11.37;10.00;;;8.80;99.90;;;;;;5050413;28;20246;-55
2022/11/27 05:23:33;;;;;;;13.43;10.37;;;8.70;99.90;;;;;;5050298;28;20163;-54
2022/11/27 05:25:59;;;;;;;12.50;9.40;;;10.50;99.90;;;;;;5050860;28;20582;-58
2022/11/27 05:28:25;;;;;;;12.33;9.60;;;8.90;99.90;;;;;;5050389;28;20207;-54
2022/11/27 05:30:51;;;;;;;14.73;10.50;;;;;;;;;;5050771;28;20163;-55
2022/11/27 05:33:17;;;;;;;15.50;10.00;;;8.90;99.90;;;;;;5050769;28;20647;-55
2022/11/27 05:35:44;;;;;;;13.33;10.70;;;8.80;99.90;;;;;;5048785;28;20597;-52
2022/11/27 05:38:10;;;;;;;13.53;11.00;;;;;;;;;;5050655;28;20274;-55
2022/11/27 05:40:35;;;;;;;13.47;10.43;;;8.90;99.90;;;;;;5050598;28;20183;-52
2022/11/27 05:43:01;;;;;;;14.50;10.27;;;9.00;99.90;;;;;;5050751;28;20167;-55
2022/11/27 05:45:27;;;;;;;13.43;10.17;;;9.00;99.90;;;;;;5050275;28;20650;-54
2022/11/27 05:47:52;;;;;;;12.57;10.83;;;8.80;99.90;;;;;;5051004;28;20548;-54
2022/11/27 05:50:18;;;;;;;15.10;11.03;;;8.80;99.90;;;;;;5054065;28;20182;-56
2022/11/27 05:52:43;;;;;;;12.70;10.17;;;8.60;99.90;;;;;;5053378;28;20172;-54
2022/11/27 05:55:09;;;;;;;13.90;11.33;;;8.50;99.90;;;;;;5053878;28;20749;-55
2022/11/27 05:57:34;;;;;;;13.63;11.77;;;8.60;99.90;;;;;;5053931;28;20257;-52
2022/11/27 06:00:00;;;;;;;12.13;10.80;;;8.70;99.90;;;;;;5054243;28;20167;-56
2022/11/27 06:02:26;;;;;;;12.33;10.77;;;8.80;99.90;;;;;;5053916;28;20174;-56
2022/11/27 06:04:51;;;;;;;12.30;10.87;;;8.80;99.90;;;;;;5053878;28;20178;-53
2022/11/27 06:07:17;;;;;;;11.60;10.03;;;8.90;99.90;;;;;;5053458;28;20175;-53
2022/11/27 06:09:43;;;;;;;12.90;10.83;;;8.90;99.90;;;;;;5053434;28;20197;-55
2022/11/27 06:12:08;;;;;;;13.40;10.57;;;8.50;99.90;;;;;;5053619;28;20229;-55
2022/11/27 06:14:34;;;;;;;12.73;10.33;;;8.80;99.90;;;;;;5053645;28;20260;-55
2022/11/27 06:17:03;;;;;;;13.37;10.40;;;8.50;99.90;;;;;;5053694;28;20640;-52
2022/11/27 06:19:28;;;;;;;11.97;10.50;;;8.50;99.90;;;;;;5053606;28;20543;-54
2022/11/27 06:21:54;;;;;;;12.57;10.67;;;9.20;99.90;;;;;;5052904;28;20167;-53
2022/11/27 06:24:20;;;;;;;13.27;10.90;;;8.60;99.90;;;;;;5053505;28;20573;-56
2022/11/27 06:26:46;;;;;;;13.77;11.50;;;8.50;99.90;;;;;;5053465;28;20175;-58
2022/11/27 06:31:41;;;;;;;12.43;10.50;;;8.30;99.90;;;;;;5031929;28;20211;-52
2022/11/27 06:34:07;;;;;;;12.27;9.60;;;;;;;;;;5033078;28;20168;-55
2022/11/27 06:36:36;;;;;;;10.10;8.70;;;8.50;99.90;;;;;;4999224;28;20211;-55
2022/11/27 06:39:03;;;;;;;13.87;9.57;;;8.70;99.90;;;;;;5033209;28;20607;-55
2022/11/27 06:41:29;;;;;;;13.53;10.37;;;8.60;99.90;;;;;;5033430;28;20228;-52
2022/11/27 06:43:58;;;;;;;15.27;11.17;;;8.60;99.90;;;;;;5015052;28;20211;-59
2022/11/27 06:46:24;;;;;;;11.80;10.00;;;8.50;99.90;;;;;;5015349;28;20557;-57
2022/11/27 06:48:51;;;;;;;13.40;11.33;;;8.50;99.90;;;;;;5015632;28;20195;-54
2022/11/27 06:51:20;;;;;;;12.40;10.60;;;8.60;99.90;;;;;;4998401;28;20179;-56
2022/11/27 06:53:45;;;;;;;13.67;10.87;;;8.50;99.90;;;;;;5032438;28;20172;-53
2022/11/27 06:56:14;;;;;;;12.07;9.83;;;8.60;99.90;;;;;;5015351;28;20250;-53
2022/11/27 06:58:40;;;;;;;13.33;10.43;;;8.60;99.90;;;;;;4998758;28;20192;-58
2022/11/27 07:01:09;;;;;;;11.80;9.83;;;8.60;99.90;;;;;;5015161;28;20179;-57
2022/11/27 07:03:35;;;;;;;12.47;10.40;;;8.60;99.90;;;;;;5032687;28;20621;-53
2022/11/27 07:06:02;;;;;;;11.23;9.87;;;8.50;99.90;;;;;;4982194;28;20182;-55
2022/11/27 07:08:28;;;;;;;14.13;11.23;;;7.00;99.90;;;;;;5033148;28;20195;-57
2022/11/27 07:11:00;;;;;;;14.23;10.47;;;7.80;99.90;;;;;;5032611;28;20183;-54
2022/11/27 07:13:28;;;;;;;12.07;10.67;;;7.90;99.90;;;;;;5015035;28;20180;-52
2022/11/27 07:15:53;;;;;;;12.97;11.00;;;8.10;99.90;;;;;;4998394;28;20195;-58
2022/11/27 07:18:19;;;;;;;11.67;9.93;;;;;;;;;;5014852;28;20241;-56
2022/11/27 07:20:54;;;;;;;13.90;11.20;;;8.40;99.90;;;;;;5032210;28;20217;-55
2022/11/27 07:23:21;;;;;;;14.03;11.13;;;8.40;99.90;;;;;;5032003;28;20242;-58
2022/11/27 07:25:47;;;;;;;13.00;10.67;;;8.30;99.90;;;;;;5014210;28;20191;-53
2022/11/27 07:28:12;;;;;;;14.93;11.70;;;8.30;99.90;;;;;;5014775;28;20204;-58
2022/11/27 07:30:38;;;;;;;14.13;11.17;;;8.10;99.90;;;;;;5014421;28;20564;-57
2022/11/27 07:33:04;;;;;;;11.70;9.90;;;8.00;99.90;;;;;;4998323;28;20183;-57
2022/11/27 07:35:29;;;;;;;11.77;9.93;;;7.90;99.90;;;;;;5031975;28;20517;-53
2022/11/27 07:37:55;;;;;;;13.17;10.83;;;7.80;99.90;;;;;;5031319;28;20195;-56
2022/11/27 07:40:20;;;;;;;13.23;11.00;;;7.80;99.90;;;;;;5032352;28;20207;-56
2022/11/27 07:42:46;;;;;;;15.17;11.50;;;7.80;99.90;;;;;;5014522;28;20182;-58
2022/11/27 07:45:12;;;;;;;12.20;10.10;;;7.70;99.90;;;;;;5014485;28;20190;-55
2022/11/27 07:47:38;;;;;;;13.73;11.30;;;7.80;99.90;;;;;;5013916;28;20648;-56
2022/11/27 07:50:06;;;;;;;12.73;10.13;;;7.60;99.90;;;;;;4997817;28;20214;-57
2022/11/27 07:52:34;;;;;;;12.10;9.73;;;7.30;99.90;;;;;;5013730;28;20234;-57
2022/11/27 07:55:00;;;;;;;13.27;10.83;;;6.80;99.90;;;;;;5013664;28;20203;-54
2022/11/27 07:57:27;;;;;;;10.97;9.00;;;6.90;99.90;;;;;;4997291;28;20234;-58
2022/11/27 07:59:53;;;;;;;10.60;9.03;;;6.90;99.90;;;;;;5014177;28;20203;-55
2022/11/27 08:02:19;;;;;;;16.63;14.03;;;7.00;99.90;;;;;;5014535;28;20366;-57
2022/11/27 08:04:44;;;;;;;11.43;9.10;;;7.20;99.90;;;;;;5031387;28;20639;-54
2022/11/27 08:07:10;;;;;;;11.83;9.87;;;7.40;99.90;;;;;;5031347;28;20172;-57
2022/11/27 08:09:36;;;;;;;10.97;8.93;;;7.60;99.90;;;;;;5013819;28;20270;-56
2022/11/27 08:12:03;;;;;;;10.97;9.87;;;7.80;99.90;;;;;;5013688;28;20192;-55
2022/11/27 08:14:28;;;;;;;11.33;8.97;;;8.00;99.90;;;;;;5014016;28;20596;-52
2022/11/27 08:16:54;;;;;;;10.83;8.93;;;7.90;99.90;;;;;;4997456;28;20207;-55
2022/11/27 08:19:20;;;;;;;12.87;11.10;;;7.90;99.90;;;;;;5031510;28;20191;-52
2022/11/27 08:21:45;;;;;;;11.20;8.60;;;8.00;99.90;;;;;;5013788;28;20180;-56
2022/11/27 08:24:11;;;;;;;10.70;8.63;;;7.80;99.90;;;;;;5013504;28;20175;-55
2022/11/27 08:26:37;;;;;;;11.80;8.50;;;7.80;99.90;;;;;;5013565;28;20179;-56
2022/11/27 08:29:03;;;;;;;10.20;9.07;;;7.80;99.90;;;;;;4997402;28;20203;-55
2022/11/27 08:31:28;;;;;;;11.77;8.87;;;7.70;99.90;;;;;;4997190;28;20610;-52
2022/11/27 08:33:54;;;;;;;10.90;9.37;;;7.70;99.90;;;;;;5013447;28;20676;-54
2022/11/27 08:36:21;;;;;;;9.97;7.87;;;7.70;99.90;;;;;;5031074;28;20282;-52
2022/11/27 08:38:46;;;;;;;10.70;8.67;;;7.70;99.90;;;;;;5030870;28;20231;-55
2022/11/27 08:41:12;;;;;;;9.77;8.00;;;7.60;99.90;;;;;;5013606;28;20589;-52
2022/11/27 08:43:38;;;;;;;9.87;8.33;;;7.60;99.90;;;;;;5013560;28;20238;-52
2022/11/27 08:46:05;;;;;;;9.83;8.20;;;7.40;99.90;;;;;;5013349;28;20188;-52
2022/11/27 08:48:31;;;;;;;9.37;8.37;;;7.40;99.90;;;;;;5031119;28;20432;-55
2022/11/27 08:50:57;;;;;;;10.27;8.30;;;7.60;99.90;;;;;;4996835;28;20180;-55
2022/11/27 08:53:23;;;;;;;10.13;8.60;;;8.30;99.90;;;;;;5013360;28;20202;-52
2022/11/27 08:55:48;;;;;;;11.90;8.77;;;7.80;99.90;;;;;;5013580;28;20716;-54
2022/11/27 08:58:14;;;;;;;10.23;8.63;;;7.90;99.90;;;;;;5031201;28;20203;-52
2022/11/27 09:00:40;;;;;;;10.67;9.57;;;8.00;99.90;;;;;;5014089;28;20182;-54
2022/11/27 09:03:05;;;;;;;11.10;8.90;;;8.10;99.90;;;;;;5013760;28;20657;-54
2022/11/27 09:05:31;;;;;;;10.40;9.00;;;8.30;99.90;;;;;;5013452;28;20262;-54
2022/11/27 09:07:58;;;;;;;15.00;11.47;;;8.20;99.90;;;;;;5012893;28;20234;-54
2022/11/27 09:10:24;;;;;;;13.23;10.17;;;8.00;99.90;;;;;;5014028;28;20219;-54
2022/11/27 09:12:50;;;;;;;13.63;9.70;;;7.80;99.90;;;;;;4997647;28;20561;-53
2022/11/27 09:15:16;;;;;;;15.83;10.83;;;7.70;99.90;;;;;;5013837;28;20213;-55
2022/11/27 09:17:42;;;;;;;14.90;12.07;;;7.70;99.90;;;;;;5013779;28;20255;-54
2022/11/27 09:20:08;;;;;;;18.40;15.27;;;7.70;99.90;;;;;;5013829;28;20185;-53
2022/11/27 09:22:34;;;;;;;24.23;20.10;;;7.70;99.90;;;;;;5030875;28;20203;-54
2022/11/27 09:25:00;;;;;;;21.20;18.77;;;7.50;99.90;;;;;;5034613;28;20260;-55
2022/11/27 09:27:26;;;;;;;13.23;11.07;;;7.20;99.90;;;;;;5017919;28;20216;-54
2022/11/27 09:29:52;;;;;;;13.40;10.13;;;7.20;99.90;;;;;;5001039;28;20697;-53
2022/11/27 09:32:18;;;;;;;11.63;8.77;;;7.30;99.90;;;;;;4985149;28;20189;-54
2022/11/27 09:34:43;;;;;;;11.00;9.57;;;7.40;99.90;;;;;;5017059;28;20246;-54
2022/11/27 09:37:09;;;;;;;10.00;8.47;;;7.30;99.90;;;;;;5017310;28;20274;-53
2022/11/27 09:39:35;;;;;;;8.37;7.47;;;7.30;99.90;;;;;;5017379;28;20257;-58
2022/11/27 09:42:03;;;;;;;10.03;8.30;;;7.20;99.90;;;;;;5017560;28;20180;-54
2022/11/27 09:44:47;;;;;;;12.37;10.27;;;7.10;99.90;;;;;;5034899;28;20175;-56
2022/11/27 09:47:12;;;;;;;9.90;8.40;;;6.90;99.90;;;;;;5030005;28;20191;-54
2022/11/27 09:49:46;;;;;;;8.90;7.83;;;7.00;99.90;;;;;;5018579;28;20555;-57
2022/11/27 09:52:24;;;;;;;9.00;7.63;;;7.10;99.90;;;;;;5002523;28;20176;-52
2022/11/27 09:54:57;;;;;;;7.90;7.10;;;6.90;99.90;;;;;;5056734;28;20203;-55
2022/11/27 09:57:31;;;;;;;9.27;8.37;;;6.60;99.90;;;;;;5027860;28;20562;-52
2022/11/27 10:00:01;;;;;;;11.37;8.13;;;6.70;99.90;;;;;;5021697;28;20187;-52
2022/11/27 10:02:30;;;;;;;9.23;7.80;;;6.80;99.90;;;;;;5036691;28;20266;-54
2022/11/27 10:04:58;;;;;;;9.70;8.23;;;7.00;99.90;;;;;;5030550;28;20184;-56
2022/11/27 10:07:27;;;;;;;10.30;7.33;;;6.90;99.90;;;;;;5000056;28;20184;-54
2022/11/27 10:10:11;;;;;;;7.80;6.87;;;6.90;99.90;;;;;;5017490;28;20715;-52
2022/11/27 10:13:01;;;;;;;8.63;7.57;;;7.20;99.90;;;;;;5017522;28;20184;-55
2022/11/27 10:15:57;;;;;;;9.00;7.40;;;7.30;99.90;;;;;;5018278;28;20656;-54
2022/11/27 10:18:33;;;;;;;9.40;7.63;;;7.30;99.90;;;;;;5034708;28;20236;-56
2022/11/27 10:21:08;;;;;;;8.77;7.23;;;7.30;99.90;;;;;;5000280;28;20665;-59
2022/11/27 10:23:54;;;;;;;8.50;7.20;;;7.50;99.90;;;;;;5019054;28;20182;-48
2022/11/27 10:26:40;;;;;;;8.63;7.40;;;7.70;99.90;;;;;;5000595;28;20175;-51
2022/11/27 10:29:29;;;;;;;9.03;7.63;;;7.80;99.90;;;;;;5033340;28;20206;-53
2022/11/27 10:32:00;;;;;;;8.17;7.23;;;7.70;99.90;;;;;;5016423;28;20191;-51
2022/11/27 10:34:41;;;;;;;7.90;7.10;;;7.50;99.90;;;;;;5015120;28;20184;-52
2022/11/27 10:37:24;;;;;;;8.83;7.93;;;7.20;99.90;;;;;;5032713;28;20598;-54
2022/11/27 10:39:55;;;;;;;7.33;6.40;;;7.10;99.90;;;;;;5015717;28;20234;-50
2022/11/27 10:42:26;;;;;;;7.50;6.73;;;7.00;99.90;;;;;;5013018;28;20598;-51
2022/11/27 10:45:03;;;;;;;6.93;6.13;;;6.90;99.90;;;;;;4996674;28;20219;-53
2022/11/27 10:47:29;;;;;;;7.10;6.37;;;7.00;99.90;;;;;;5011649;28;20218;-52
2022/11/27 10:49:56;;;;;;;6.27;5.60;;;7.20;99.90;;;;;;5013494;28;20231;-53
2022/11/27 10:52:22;;;;;;;7.13;6.07;;;7.30;99.90;;;;;;5030591;28;20176;-51
2022/11/27 10:54:57;;;;;;;6.33;5.70;;;7.40;99.90;;;;;;5013621;28;20234;-52
2022/11/27 10:57:31;;;;;;;7.97;5.97;;;7.40;99.90;;;;;;5014359;28;20238;-52
2022/11/27 11:00:21;;;;;;;7.60;6.17;;;7.30;99.90;;;;;;5033043;28;20254;-51
2022/11/27 11:02:48;;;;;;;7.13;5.97;;;7.40;99.90;;;;;;4951985;29;20202;-52
2022/11/27 11:05:25;;;;;;;6.20;5.60;;;7.60;99.90;;;;;;4951698;28;20206;-54
2022/11/27 11:07:58;;;;;;;7.00;6.13;;;7.50;99.90;;;;;;4934400;28;20421;-53
2022/11/27 11:10:31;;;;;;;6.77;5.90;;;7.60;99.90;;;;;;4951633;28;20814;-52
2022/11/27 11:13:26;;;;;;;6.60;5.73;;;7.50;99.90;;;;;;4952190;28;20182;-51
2022/11/27 11:16:05;;;;;;;6.87;5.70;;;7.50;99.90;;;;;;4935013;29;20244;-54
2022/11/27 11:18:33;;;;;;;6.50;5.80;;;7.30;99.90;;;;;;4935527;29;20202;-55
2022/11/27 11:21:05;;;;;;;6.77;6.07;;;7.40;99.90;;;;;;4935516;29;20194;-55
2022/11/27 11:23:39;;;;;;;7.20;6.50;;;7.40;99.90;;;;;;4951441;29;20248;-55
2022/11/27 11:26:14;;;;;;;6.70;5.53;;;7.50;99.90;;;;;;4936445;29;20190;-51
2022/11/27 11:28:49;;;;;;;7.50;6.03;;;7.70;99.90;;;;;;4951981;28;20257;-53
2022/11/27 11:31:18;;;;;;;7.57;6.27;;;7.90;99.90;;;;;;4920188;29;20237;-51
2022/11/27 11:33:57;;;;;;;7.10;6.40;;;8.20;99.90;;;;;;4951591;28;20201;-53
2022/11/27 11:36:23;;;;;;;7.13;6.10;;;8.20;99.90;;;;;;4935288;28;20678;-55
2022/11/27 11:38:50;;;;;;;6.53;5.90;;;8.30;99.90;;;;;;4942590;28;20330;-55
2022/11/27 11:41:17;;;;;;;6.20;5.60;;;8.40;99.90;;;;;;5014426;28;20229;-51
2022/11/27 11:43:54;;;;;;;6.50;5.80;;;8.60;99.90;;;;;;4997869;28;20187;-52
2022/11/27 11:46:23;;;;;;;7.17;6.13;;;8.50;99.90;;;;;;5013284;28;20190;-53
2022/11/27 11:49:15;;;;;;;6.93;5.77;;;8.50;99.90;;;;;;5014248;28;20252;-54
2022/11/27 11:51:56;;;;;;;6.77;6.07;;;8.50;99.90;;;;;;5011855;28;20191;-49
2022/11/27 11:54:24;;;;;;;6.70;6.00;;;8.20;99.90;;;;;;5031766;28;20176;-54
2022/11/27 11:56:51;;;;;;;6.73;6.03;;;7.90;99.90;;;;;;5031634;28;20186;-53
2022/11/27 11:59:36;;;;;;;6.20;5.60;;;7.80;99.90;;;;;;5014229;28;20684;-54
2022/11/27 12:02:25;;;;;;;7.37;6.53;;;7.80;99.90;;;;;;5031568;28;20640;-55
2022/11/27 12:05:10;;;;;;;9.13;7.67;;;7.90;99.90;;;;;;5031853;28;20665;-54
2022/11/27 12:08:04;;;;;;;6.33;5.70;;;8.00;99.90;;;;;;5030579;28;20253;-53
2022/11/27 12:10:49;;;;;;;6.77;6.07;;;8.30;99.90;;;;;;5014169;28;20222;-54
2022/11/27 12:13:32;;;;;;;6.90;6.13;;;8.40;99.90;;;;;;5013816;28;20184;-54
2022/11/27 12:16:23;;;;;;;8.70;7.43;;;8.50;99.90;;;;;;4997755;28;20203;-54
2022/11/27 12:19:06;;;;;;;8.13;5.83;;;8.60;99.90;;;;;;5013515;28;20211;-54
2022/11/27 12:21:44;;;;;;;6.17;5.53;;;8.60;99.90;;;;;;4997300;28;20576;-54
2022/11/27 12:24:35;;;;;;;6.43;5.67;;;8.70;99.90;;;;;;5013268;28;20210;-55
2022/11/27 12:27:20;;;;;;;6.33;5.70;;;8.80;99.90;;;;;;5013495;28;20183;-56
2022/11/27 12:29:48;;;;;;;10.10;8.70;;;8.70;99.90;;;;;;5032085;28;20211;-54
2022/11/27 12:32:35;;;;;;;7.70;6.73;;;8.90;99.90;;;;;;5031503;28;20183;-57
2022/11/27 12:35:25;;;;;;;6.77;6.00;;;9.20;99.90;;;;;;5030572;28;20203;-53
2022/11/27 12:38:28;;;;;;;7.77;5.23;;;9.60;99.90;;;;;;5030315;28;20179;-53
2022/11/27 12:41:24;;;;;;;6.13;5.53;;;10.00;99.90;;;;;;5031044;28;20648;-55
2022/11/27 12:43:54;;;;;;;6.00;5.40;;;10.30;99.90;;;;;;5015262;28;20258;-56
2022/11/27 12:46:44;;;;;;;5.87;5.27;;;10.50;99.90;;;;;;5013733;28;20677;-57
2022/11/27 12:49:16;;;;;;;6.20;5.60;;;10.70;99.90;;;;;;5013122;28;20211;-55
2022/11/27 12:51:53;;;;;;;5.90;5.30;;;11.00;99.90;;;;;;5030816;28;20715;-56
2022/11/27 12:54:24;;;;;;;6.63;5.83;;;11.10;99.90;;;;;;5014021;28;20176;-55
2022/11/27 12:56:57;;;;;;;6.33;5.73;;;11.10;99.90;;;;;;5014203;28;20216;-56
2022/11/27 12:59:38;;;;;;;6.27;5.63;;;11.00;99.90;;;;;;5019886;28;20195;-55
2022/11/27 13:02:26;;;;;;;10.47;8.33;;;10.60;99.90;;;;;;5037451;28;20167;-54
2022/11/27 13:04:55;;;;;;;6.43;5.20;;;10.50;99.90;;;;;;5037494;28;20555;-54